Time;durP1;ratioP1;P1;durP2;ratioP2;P2;SDS_P1;SDS_P2;PMS_P1;PMS_P2;Temp;Humidity;BMP_temperature;BMP_pressure;BME280_temperature;BME280_humidity;BME280_pressure;Samples;Min_cycle;Max_cycle;Signal;HPM_P1;HPM_P2
2022/01/02 00:02:27;;;;;;;69.20;64.57;;;;;;;14.52;100.00;101472.89;1912498;73;937103;-75
2022/01/02 00:08:14;;;;;;;69.33;64.93;;;;;;;14.54;100.00;101461.42;1927387;73;86314;-75
2022/01/02 00:14:07;;;;;;;69.30;65.13;;;;;;;14.48;100.00;101452.81;1916547;74;86272;-70
2022/01/02 00:19:55;;;;;;;69.03;64.77;;;;;;;14.49;100.00;101438.55;1981769;71;39605;-75
2022/01/02 00:25:42;;;;;;;70.20;65.60;;;;;;;14.48;100.00;101432.69;1837044;76;85342;-75
2022/01/02 00:31:26;;;;;;;71.10;66.90;;;;;;;14.46;100.00;101430.73;1884314;74;86270;-75
2022/01/02 00:37:11;;;;;;;71.17;66.97;;;;;;;14.42;100.00;101424.64;1907813;74;85316;-70
2022/01/02 00:42:58;;;;;;;65.53;61.13;;;;;;;14.44;100.00;101410.65;1945688;71;39385;-75
2022/01/02 00:48:46;;;;;;;65.90;61.70;;;;;;;14.39;100.00;101405.11;1840163;76;86549;-75
2022/01/02 00:54:34;;;;;;;66.90;62.70;;;;;;;14.42;100.00;101385.51;1882819;74;86226;-71
2022/01/02 01:00:22;;;;;;;64.77;60.57;;;;;;;14.37;100.00;101378.05;1891275;74;86814;-70
2022/01/02 01:06:08;;;;;;;63.80;59.60;;;;;;;14.31;100.00;101370.80;1914426;73;86572;-75
2022/01/02 01:11:54;;;;;;;72.70;67.80;;;;;;;14.31;100.00;101365.78;1978897;71;39495;-70
2022/01/02 01:17:40;;;;;;;63.70;59.30;;;;;;;14.25;100.00;101366.39;1971410;72;85689;-71
2022/01/02 01:23:25;;;;;;;67.47;63.20;;;;;;;14.27;100.00;101364.70;1872214;74;86442;-71
2022/01/02 01:29:08;;;;;;;66.50;62.13;;;;;;;14.27;100.00;101357.72;1928145;73;86518;-71
2022/01/02 01:34:53;;;;;;;64.50;60.10;;;;;;;14.23;100.00;101349.67;1983284;71;39501;-75
2022/01/02 01:40:40;;;;;;;65.40;61.13;;;;;;;14.17;100.00;101324.30;1842159;76;86340;-75
2022/01/02 01:46:24;;;;;;;65.67;61.47;;;;;;;14.07;100.00;101312.15;1870391;75;85588;-76
2022/01/02 01:52:09;;;;;;;65.07;60.73;;;;;;;13.98;100.00;101300.52;1912419;73;86669;-74
2022/01/02 01:57:54;;;;;;;66.20;61.70;;;;;;;14.00;100.00;101289.30;1977554;70;39459;-71
2022/01/02 02:03:39;;;;;;;69.23;64.53;;;;;;;14.04;100.00;101293.17;1844450;76;86412;-74
2022/01/02 02:09:27;;;;;;;65.07;60.83;;;;;;;14.00;100.00;101282.32;1869370;74;87023;-74
2022/01/02 02:15:12;;;;;;;65.00;60.70;;;;;;;13.95;100.00;101270.37;1924380;72;86326;-75
2022/01/02 02:20:59;;;;;;;63.40;59.00;;;;;;;13.94;100.00;101273.75;1985707;71;39530;-70
2022/01/02 02:26:44;;;;;;;68.23;63.47;;;;;;;13.90;100.00;101285.25;1861884;76;85016;-74
2022/01/02 02:32:28;;;;;;;65.80;61.23;;;;;;;13.93;100.00;101276.27;1885705;74;86202;-75
2022/01/02 02:38:14;;;;;;;64.77;60.10;;;;;;;14.06;100.00;101277.52;1903847;74;86512;-75
2022/01/02 02:44:04;;;;;;;66.27;62.03;;;;;;;14.11;100.00;101273.27;1975067;71;40308;-70
2022/01/02 02:49:47;;;;;;;63.80;59.50;;;;;;;14.14;100.00;101255.89;1848202;76;86340;-70
2022/01/02 02:55:33;;;;;;;65.10;60.50;;;;;;;14.12;100.00;101242.22;1795103;78;86518;-75
2022/01/02 03:01:19;;;;;;;62.67;58.47;;;;;;;14.14;100.00;101241.37;1909359;73;86160;-70
2022/01/02 03:07:03;;;;;;;65.90;61.80;;;;;;;14.16;100.00;101236.89;1922936;72;85906;-70
2022/01/02 03:12:47;;;;;;;60.33;56.07;;;;;;;14.10;100.00;101229.69;1894996;74;86434;-74
2022/01/02 03:18:34;;;;;;;59.63;55.23;;;;;;;14.06;100.00;101215.50;1795405;78;86232;-70
2022/01/02 03:24:19;;;;;;;62.87;58.43;;;;;;;14.07;100.00;101200.41;1874717;75;86282;-70
2022/01/02 03:30:02;;;;;;;63.13;58.67;;;;;;;14.03;100.00;101198.52;1930321;71;85571;-74
2022/01/02 03:35:47;;;;;;;61.27;56.80;;;;;;;13.97;100.00;101185.73;1894982;74;86203;-75
2022/01/02 03:41:32;;;;;;;61.07;56.67;;;;;;;13.96;100.00;101181.27;1909482;74;86849;-70
2022/01/02 03:47:16;;;;;;;59.17;54.97;;;;;;;13.90;100.00;101172.16;1909637;72;86729;-75
2022/01/02 03:53:00;;;;;;;61.20;56.50;;;;;;;13.89;100.00;101153.72;1984676;71;39727;-75
2022/01/02 03:58:44;;;;;;;59.53;55.30;;;;;;;13.89;100.00;101163.50;1847110;76;86751;-75
2022/01/02 04:04:28;;;;;;;62.30;58.33;;;;;;;13.91;100.00;101145.86;1827805;76;86592;-70
2022/01/02 04:10:16;;;;;;;59.10;55.00;;;;;;;13.89;100.00;101145.34;1907158;72;86901;-70
2022/01/02 04:16:00;;;;;;;58.07;53.87;;;;;;;13.77;100.00;101128.77;1980675;71;56478;-70
2022/01/02 04:21:44;;;;;;;61.67;57.87;;;;;;;13.83;100.00;101142.91;1844750;76;86271;-74
2022/01/02 04:27:29;;;;;;;59.20;55.40;;;;;;;13.89;100.00;101151.50;1795652;78;86524;-70
2022/01/02 04:33:12;;;;;;;58.13;54.33;;;;;;;13.75;100.00;101138.83;1906242;74;86818;-75
2022/01/02 04:38:57;;;;;;;59.00;55.03;;;;;;;13.78;100.00;101134.63;1975491;71;39637;-70
2022/01/02 04:44:41;;;;;;;62.10;57.70;;;;;;;13.86;100.00;101133.95;1969917;72;85218;-73
2022/01/02 04:50:27;;;;;;;56.83;53.03;;;;;;;13.90;100.00;101155.40;1882638;73;86520;-71
2022/01/02 04:56:11;;;;;;;59.00;54.50;;;;;;;13.85;100.00;101153.23;1924239;73;86090;-75
2022/01/02 05:01:55;;;;;;;60.87;56.50;;;;;;;13.74;100.00;101145.53;1932249;70;39532;-75
2022/01/02 05:07:39;;;;;;;59.43;55.27;;;;;;;13.69;100.00;101111.53;1972379;72;86373;-71
2022/01/02 05:13:24;;;;;;;57.90;53.63;;;;;;;13.65;100.00;101070.00;1887894;74;86422;-69
2022/01/02 05:19:09;;;;;;;60.93;56.53;;;;;;;13.56;100.00;101013.78;1913944;73;86210;-75
2022/01/02 05:24:53;;;;;;;58.73;54.37;;;;;;;13.46;100.00;101038.46;1981333;71;39556;-74
2022/01/02 05:30:36;;;;;;;58.93;54.77;;;;;;;13.29;100.00;101056.83;1844872;76;86136;-71
2022/01/02 05:36:21;;;;;;;57.87;53.57;;;;;;;13.29;100.00;101078.59;1881378;75;86719;-75
2022/01/02 05:42:07;;;;;;;59.23;54.80;;;;;;;13.31;100.00;101085.24;1917042;74;86284;-70
2022/01/02 05:47:51;;;;;;;55.53;51.37;;;;;;;13.30;100.00;101091.41;1980938;71;39551;-70
2022/01/02 05:53:36;;;;;;;58.80;54.33;;;;;;;13.32;100.00;101095.28;1846628;76;86137;-76
2022/01/02 05:59:21;;;;;;;55.93;52.13;;;;;;;13.25;100.00;101094.82;1871564;75;86728;-76
2022/01/02 06:05:07;;;;;;;57.37;53.30;;;;;;;13.21;100.00;101095.42;1911241;74;86714;-75
2022/01/02 06:10:50;;;;;;;58.40;54.27;;;;;;;13.19;100.00;101096.27;2016698;71;32812;-75
2022/01/02 06:16:34;;;;;;;54.80;50.90;;;;;;;13.04;100.00;101107.58;1995366;71;32724;-75
2022/01/02 06:22:18;;;;;;;54.33;50.63;;;;;;;13.07;100.00;101120.92;2006596;70;33365;-70
2022/01/02 06:28:03;;;;;;;54.67;50.77;;;;;;;13.01;100.00;101107.31;2005480;70;33522;-75
2022/01/02 06:33:48;;;;;;;53.30;49.80;;;;;;;12.91;100.00;101108.84;2018253;71;32881;-75
2022/01/02 06:39:33;;;;;;;52.40;48.83;;;;;;;12.98;100.00;101117.11;2002081;71;32888;-75
2022/01/02 06:45:17;;;;;;;54.30;50.67;;;;;;;12.93;100.00;101112.98;2016717;71;33390;-70
2022/01/02 06:51:01;;;;;;;55.13;51.50;;;;;;;12.73;100.00;101101.48;2011169;71;32814;-75
2022/01/02 06:56:45;;;;;;;56.60;53.00;;;;;;;12.68;100.00;101102.08;2011621;71;33321;-75
2022/01/02 07:02:29;;;;;;;54.30;50.43;;;;;;;12.66;100.00;101095.39;2015060;71;32870;-74
2022/01/02 07:08:16;;;;;;;53.97;50.30;;;;;;;12.68;100.00;101091.77;2000594;70;33332;-74
2022/01/02 07:14:00;;;;;;;60.33;56.53;;;;;;;12.58;100.00;101108.57;2008202;71;32792;-70
2022/01/02 07:19:44;;;;;;;52.90;49.50;;;;;;;12.48;100.00;101121.77;2002653;70;32756;-74
2022/01/02 07:25:29;;;;;;;57.33;53.47;;;;;;;12.45;100.00;101139.08;2018490;71;32794;-75
2022/01/02 07:31:13;;;;;;;58.20;54.47;;;;;;;12.36;100.00;101148.63;2004150;71;33373;-76
2022/01/02 07:36:57;;;;;;;56.43;52.63;;;;;;;12.35;100.00;101139.98;2008075;71;33271;-70
2022/01/02 07:42:42;;;;;;;60.20;56.40;;;;;;;12.29;100.00;101148.09;2009451;71;32852;-71
2022/01/02 07:48:27;;;;;;;60.40;56.80;;;;;;;12.16;100.00;101159.33;2003967;71;32818;-70
2022/01/02 07:54:13;;;;;;;59.07;54.83;;;;;;;12.07;100.00;101183.88;2004087;71;33277;-70
2022/01/02 07:59:58;;;;;;;64.27;60.27;;;;;;;11.89;100.00;101204.88;2009349;71;33304;-75
2022/01/02 08:05:42;;;;;;;57.60;54.10;;;;;;;12.01;100.00;101233.77;2000925;71;33237;-69
2022/01/02 08:11:26;;;;;;;57.40;53.67;;;;;;;12.07;100.00;101246.53;2011327;71;32797;-70
2022/01/02 08:17:10;;;;;;;56.23;52.53;;;;;;;12.17;100.00;101268.21;2009579;71;32957;-70
2022/01/02 08:22:56;;;;;;;54.77;51.03;;;;;;;12.13;100.00;101278.26;2013321;71;33282;-69
2022/01/02 08:28:40;;;;;;;56.10;52.50;;;;;;;12.26;100.00;101280.98;2018381;71;32838;-74
2022/01/02 08:34:24;;;;;;;54.47;50.80;;;;;;;12.26;100.00;101287.39;2009303;71;32911;-70
2022/01/02 08:40:10;;;;;;;55.77;52.07;;;;;;;12.32;100.00;101291.00;2000639;71;33147;-74
2022/01/02 08:45:55;;;;;;;55.43;51.83;;;;;;;12.27;100.00;101284.05;2015133;71;32904;-75
2022/01/02 08:51:43;;;;;;;56.17;52.53;;;;;;;12.24;100.00;101283.20;2000584;71;32805;-73
2022/01/02 08:57:27;;;;;;;62.40;58.80;;;;;;;12.11;100.00;101296.35;2000110;71;32877;-73
2022/01/02 09:03:11;;;;;;;60.70;56.90;;;;;;;12.06;100.00;101303.36;2016720;71;33303;-73
2022/01/02 09:08:55;;;;;;;59.50;56.00;;;;;;;12.05;100.00;101294.17;1999036;71;33271;-74
2022/01/02 09:14:39;;;;;;;56.30;53.13;;;;;;;12.17;100.00;101291.88;1991483;71;32804;-70
2022/01/02 09:20:23;;;;;;;57.63;54.23;;;;;;;12.33;100.00;101285.67;2002644;71;33201;-69
2022/01/02 09:26:07;;;;;;;59.37;56.17;;;;;;;12.31;100.00;101285.98;2013554;71;32740;-74
2022/01/02 09:31:50;;;;;;;59.80;56.57;;;;;;;12.44;100.00;101276.72;2015021;71;32809;-69
2022/01/02 09:37:36;;;;;;;57.70;54.50;;;;;;;12.58;100.00;101284.14;2000704;70;32896;-68
2022/01/02 09:43:22;;;;;;;55.00;52.00;;;;;;;12.63;100.00;101285.50;2011538;71;32742;-74
2022/01/02 09:49:08;;;;;;;55.37;52.27;;;;;;;12.73;100.00;101278.48;1995275;71;32732;-69
2022/01/02 09:54:55;;;;;;;55.93;52.63;;;;;;;12.71;100.00;101288.23;2011960;71;33271;-74
2022/01/02 10:00:40;;;;;;;50.80;47.70;;;;;;;12.77;100.00;101280.13;2016615;71;32810;-74
2022/01/02 10:06:35;;;;;;;50.87;48.23;;;;;;;12.77;100.00;101270.36;2009474;71;33370;-74
2022/01/02 10:12:26;;;;;;;51.67;48.67;;;;;;;12.79;100.00;101270.33;1991652;71;32753;-76
2022/01/02 10:18:30;;;;;;;48.63;45.83;;;;;;;12.88;100.00;101269.16;2006382;71;32747;-74
2022/01/02 10:24:19;;;;;;;50.40;47.50;;;;;;;12.88;100.00;101267.77;2004204;71;33276;-68
2022/01/02 10:30:24;;;;;;;46.30;43.37;;;;;;;12.85;100.00;101262.77;1991884;71;32746;-68
2022/01/02 10:36:08;;;;;;;49.57;46.67;;;;;;;13.02;100.00;101258.18;2016587;71;32888;-75
2022/01/02 10:41:54;;;;;;;48.63;45.80;;;;;;;13.17;100.00;101246.94;2000306;71;32817;-76
2022/01/02 10:47:45;;;;;;;49.80;47.00;;;;;;;13.36;100.00;101239.48;2000733;71;33306;-69
2022/01/02 10:53:31;;;;;;;53.47;50.57;;;;;;;13.30;100.00;101235.66;2011149;71;32843;-70
2022/01/02 10:59:17;;;;;;;49.67;46.67;;;;;;;13.15;100.00;101240.80;2007654;71;32830;-70
2022/01/02 11:05:05;;;;;;;50.30;47.33;;;;;;;13.14;100.00;101240.52;1998897;71;33232;-66
2022/01/02 11:10:54;;;;;;;49.87;47.13;;;;;;;13.14;100.00;101241.36;2004160;71;33422;-75
2022/01/02 11:16:39;;;;;;;48.40;45.70;;;;;;;13.04;100.00;101247.58;1991975;71;32751;-72
2022/01/02 11:22:27;;;;;;;52.50;49.50;;;;;;;13.00;100.00;101237.58;2000676;71;32770;-68
2022/01/02 11:25:02;;;;;;;50.27;47.40;;;;;;;12.95;100.00;101233.98;1982552;72;26301;-72
2022/01/02 11:27:37;;;;;;;51.03;48.33;;;;;;;12.99;100.00;101231.72;1985620;72;26763;-67
2022/01/02 11:33:52;;;;;;;51.10;48.10;;;;;;;12.95;100.00;101216.70;2011614;71;32978;-67
2022/01/02 11:39:55;;;;;;;53.70;50.63;;;;;;;12.79;100.00;101204.83;2002631;71;32822;-71
2022/01/02 11:46:01;;;;;;;53.83;50.77;;;;;;;12.78;100.00;101195.38;2018563;71;32827;-73
2022/01/02 11:52:08;;;;;;;56.27;53.27;;;;;;;12.91;100.00;101196.66;1996973;71;32739;-72
2022/01/02 11:57:56;;;;;;;55.83;52.77;;;;;;;12.90;100.00;101191.64;1991512;71;32796;-74
2022/01/02 12:04:01;;;;;;;55.10;51.90;;;;;;;12.98;100.00;101191.56;1997034;71;32813;-68
2022/01/02 12:09:54;;;;;;;58.37;55.27;;;;;;;12.83;100.00;101180.00;1994866;71;33339;-67
2022/01/02 12:16:10;;;;;;;56.43;53.30;;;;;;;12.95;100.00;101165.11;2009943;71;32728;-73
2022/01/02 12:22:41;;;;;;;54.23;51.13;;;;;;;13.03;100.00;101155.27;2000756;71;32735;-75
2022/01/02 12:28:40;;;;;;;53.90;50.60;;;;;;;13.10;100.00;101151.03;2011100;71;32822;-76
2022/01/02 12:34:26;;;;;;;59.63;56.23;;;;;;;13.07;100.00;101144.63;2010046;71;33209;-68
2022/01/02 12:40:19;;;;;;;67.17;63.10;;;;;;;13.00;100.00;101140.53;2013113;71;32824;-68
2022/01/02 12:46:05;;;;;;;64.27;60.27;;;;;;;12.72;100.00;101140.78;1991619;71;33242;-68
2022/01/02 12:51:52;;;;;;;63.23;59.33;;;;;;;12.70;100.00;101124.38;2009207;71;32999;-74
2022/01/02 12:57:37;;;;;;;63.03;59.17;;;;;;;12.67;100.00;101126.33;2004552;71;32847;-74
2022/01/02 13:03:23;;;;;;;63.17;58.87;;;;;;;12.61;100.00;101116.92;1995318;71;32840;-69
2022/01/02 13:09:08;;;;;;;63.53;59.67;;;;;;;12.76;100.00;101099.48;1985115;71;32801;-74
2022/01/02 13:14:53;;;;;;;67.77;63.67;;;;;;;12.80;100.00;101092.76;2009516;71;32868;-76
2022/01/02 13:20:41;;;;;;;63.40;59.33;;;;;;;12.90;100.00;101082.91;2004062;71;32891;-74
2022/01/02 13:26:25;;;;;;;60.47;56.13;;;;;;;13.02;100.00;101077.75;1989242;71;32783;-68
2022/01/02 13:32:18;;;;;;;57.80;53.53;;;;;;;13.07;100.00;101074.07;2000629;71;32801;-69
2022/01/02 13:38:15;;;;;;;63.40;59.20;;;;;;;13.09;100.00;101060.68;2000063;71;32851;-67
2022/01/02 13:44:02;;;;;;;57.77;53.77;;;;;;;13.04;100.00;101053.20;1998338;71;32812;-67
2022/01/02 13:49:52;;;;;;;64.47;60.10;;;;;;;13.05;100.00;101030.33;2012697;71;32800;-73
2022/01/02 13:55:40;;;;;;;62.30;57.83;;;;;;;13.08;100.00;101022.75;2018270;71;32801;-73
2022/01/02 14:01:33;;;;;;;66.43;62.37;;;;;;;13.08;100.00;101001.84;2012988;71;32821;-73
2022/01/02 14:07:18;;;;;;;65.53;61.00;;;;;;;13.12;100.00;100992.61;2000652;71;32816;-67
2022/01/02 14:13:11;;;;;;;60.80;56.77;;;;;;;13.10;100.00;100975.33;2003792;71;33415;-74
2022/01/02 14:18:52;;;;;;;62.23;57.83;;;;;;;13.11;100.00;100966.41;2006519;71;32733;-75
2022/01/02 14:24:36;;;;;;;65.63;61.53;;;;;;;13.12;100.00;100954.96;2014984;71;33386;-71
2022/01/02 14:30:22;;;;;;;61.70;57.20;;;;;;;13.10;100.00;100941.00;2011626;71;32773;-71
2022/01/02 14:36:06;;;;;;;64.40;59.90;;;;;;;13.06;100.00;100923.20;2016722;71;32795;-69
2022/01/02 14:41:51;;;;;;;64.07;59.80;;;;;;;12.91;100.00;100944.34;2005879;71;30946;-68
2022/01/02 14:47:37;;;;;;;61.23;57.13;;;;;;;12.84;100.00;100932.14;2000625;71;32745;-69
2022/01/02 14:53:27;;;;;;;57.43;53.27;;;;;;;12.93;100.00;100938.72;2007418;71;32951;-70
2022/01/02 14:59:13;;;;;;;55.13;51.43;;;;;;;12.97;100.00;100950.93;2008027;71;32882;-68
2022/01/02 15:04:57;;;;;;;50.30;46.70;;;;;;;13.01;100.00;100943.62;2009239;71;32834;-72
2022/01/02 15:10:41;;;;;;;49.57;46.37;;;;;;;12.97;100.00;100949.53;2013500;71;32787;-73
2022/01/02 15:16:26;;;;;;;49.20;46.10;;;;;;;13.00;100.00;100956.49;2011704;71;33280;-69
2022/01/02 15:22:10;;;;;;;49.87;46.97;;;;;;;12.88;100.00;100965.27;2011482;71;33424;-73
2022/01/02 15:27:54;;;;;;;48.73;45.77;;;;;;;12.82;100.00;100964.24;2005692;71;32987;-69
2022/01/02 15:33:39;;;;;;;49.87;46.90;;;;;;;12.74;100.00;100947.62;2005724;71;33303;-73
2022/01/02 15:39:23;;;;;;;50.03;46.97;;;;;;;12.69;100.00;100953.25;2006076;71;32781;-67
2022/01/02 15:45:08;;;;;;;48.93;45.93;;;;;;;12.67;100.00;100948.52;2006077;71;33362;-72
2022/01/02 15:50:53;;;;;;;51.13;47.83;;;;;;;12.67;100.00;100952.14;1997080;71;32846;-73
2022/01/02 15:56:38;;;;;;;48.83;45.83;;;;;;;12.55;100.00;100962.87;1994906;71;32836;-72
2022/01/02 16:02:23;;;;;;;49.67;46.57;;;;;;;12.54;100.00;100975.70;2004329;71;32776;-72
2022/01/02 16:08:07;;;;;;;50.00;46.83;;;;;;;12.66;100.00;100978.34;2002673;71;33256;-74
2022/01/02 16:13:51;;;;;;;50.17;46.90;;;;;;;12.48;100.00;100993.05;2002499;71;32799;-76
2022/01/02 16:19:36;;;;;;;52.13;48.93;;;;;;;12.54;100.00;100991.86;2005723;70;32940;-75
2022/01/02 16:25:20;;;;;;;48.60;45.63;;;;;;;12.47;100.00;100991.38;1996347;71;32773;-69
2022/01/02 16:31:06;;;;;;;52.07;48.73;;;;;;;12.34;100.00;101001.82;2016477;71;32880;-67
2022/01/02 16:36:42;;;;;;;51.63;48.40;;;;;;;12.12;100.00;100992.55;2003685;71;32758;-68
2022/01/02 16:42:26;;;;;;;49.77;46.87;;;;;;;12.09;100.00;101006.23;2014711;71;32894;-74
2022/01/02 16:48:11;;;;;;;50.40;47.37;;;;;;;11.98;100.00;101012.43;2011135;71;33425;-75
2022/01/02 16:53:55;;;;;;;49.60;46.40;;;;;;;11.90;100.00;101015.00;2010998;71;32836;-68
2022/01/02 16:59:41;;;;;;;52.90;49.60;;;;;;;11.85;100.00;101039.56;1991547;71;33332;-68
2022/01/02 17:05:27;;;;;;;51.73;48.30;;;;;;;11.94;100.00;101040.58;1995484;70;33231;-70
2022/01/02 17:11:12;;;;;;;50.13;47.03;;;;;;;11.87;100.00;101047.05;1994893;71;33275;-75
2022/01/02 17:16:58;;;;;;;52.93;49.33;;;;;;;11.85;100.00;101055.67;2011675;71;32755;-68
2022/01/02 17:22:42;;;;;;;52.67;49.27;;;;;;;11.78;100.00;101073.27;2003864;71;32895;-69
2022/01/02 17:28:25;;;;;;;51.80;48.37;;;;;;;11.77;100.00;101087.45;2016569;71;32837;-68
2022/01/02 17:34:09;;;;;;;50.30;46.77;;;;;;;11.70;100.00;101091.09;2005746;71;33361;-68
2022/01/02 17:39:54;;;;;;;49.60;46.50;;;;;;;11.73;100.00;101099.73;2005601;71;32901;-69
2022/01/02 17:45:39;;;;;;;51.27;47.97;;;;;;;11.74;100.00;101109.75;2009215;71;32900;-68
2022/01/02 17:51:23;;;;;;;48.90;45.60;;;;;;;11.75;100.00;101118.94;2011408;70;32822;-68
2022/01/02 17:57:08;;;;;;;50.70;47.53;;;;;;;11.71;100.00;101115.03;1997175;71;32761;-68
2022/01/02 18:02:54;;;;;;;53.63;50.17;;;;;;;11.72;100.00;101114.75;1996863;71;32753;-68
2022/01/02 18:08:40;;;;;;;53.50;49.90;;;;;;;11.62;100.00;101104.22;2006157;71;32737;-67
2022/01/02 18:14:24;;;;;;;52.37;49.03;;;;;;;11.60;100.00;101096.15;2011304;71;33278;-67
2022/01/02 18:20:11;;;;;;;51.80;48.10;;;;;;;11.65;100.00;101111.98;2007417;71;32887;-74
2022/01/02 18:25:56;;;;;;;54.03;50.33;;;;;;;11.62;100.00;101120.91;1997031;71;33315;-72
2022/01/02 18:31:42;;;;;;;52.00;48.30;;;;;;;11.54;100.00;101118.73;2006244;71;32771;-67
2022/01/02 18:37:27;;;;;;;54.53;50.83;;;;;;;11.51;100.00;101116.53;2005513;71;33003;-73
2022/01/02 18:43:11;;;;;;;53.87;50.23;;;;;;;11.50;100.00;101135.16;2013232;71;33273;-67
2022/01/02 18:48:57;;;;;;;52.90;49.53;;;;;;;11.52;100.00;101135.70;2014710;71;32869;-67
2022/01/02 18:54:41;;;;;;;51.30;47.90;;;;;;;11.51;100.00;101138.20;2004693;70;33341;-66
2022/01/02 19:00:26;;;;;;;52.40;48.97;;;;;;;11.47;100.00;101145.45;1998919;71;32872;-67
2022/01/02 19:06:12;;;;;;;53.03;49.53;;;;;;;11.45;100.00;101159.37;2004036;71;32843;-66
2022/01/02 19:11:57;;;;;;;51.40;48.10;;;;;;;11.29;100.00;101165.00;2003733;71;32876;-71
2022/01/02 19:17:44;;;;;;;52.17;49.07;;;;;;;11.39;100.00;101163.56;1991388;71;32760;-71
2022/01/02 19:23:30;;;;;;;52.43;48.83;;;;;;;11.33;100.00;101151.36;2013528;71;32759;-66
2022/01/02 19:29:14;;;;;;;52.53;49.23;;;;;;;11.25;100.00;101165.26;2000016;71;32876;-66
2022/01/02 19:35:01;;;;;;;51.50;48.30;;;;;;;11.17;100.00;101156.11;2009282;71;32954;-66
2022/01/02 19:40:45;;;;;;;50.77;47.43;;;;;;;11.22;100.00;101152.48;2000607;71;32763;-66
2022/01/02 19:46:31;;;;;;;49.30;46.03;;;;;;;11.16;100.00;101164.75;2007935;71;32766;-66
2022/01/02 19:52:15;;;;;;;51.00;47.90;;;;;;;11.17;100.00;101160.83;2016639;71;32863;-66
2022/01/02 19:58:00;;;;;;;50.80;47.80;;;;;;;11.12;100.00;101159.48;2014878;71;32907;-73
2022/01/02 20:03:45;;;;;;;46.73;43.87;;;;;;;11.06;100.00;101153.64;1991569;71;33259;-67
2022/01/02 20:09:34;;;;;;;50.70;47.37;;;;;;;11.07;100.00;101151.98;2009683;71;33291;-75
2022/01/02 20:15:15;;;;;;;51.03;47.73;;;;;;;11.05;100.00;101168.64;2005421;71;32830;-68
2022/01/02 20:21:00;;;;;;;46.33;43.30;;;;;;;10.93;100.00;101162.84;2013285;71;32878;-67
2022/01/02 20:26:46;;;;;;;47.73;45.10;;;;;;;10.95;100.00;101171.71;2013184;71;32983;-68
2022/01/02 20:32:31;;;;;;;49.77;46.77;;;;;;;10.90;100.00;101174.53;2002460;71;32763;-67
2022/01/02 20:38:16;;;;;;;52.30;49.20;;;;;;;10.85;100.00;101182.86;2003946;71;32864;-68
2022/01/02 20:44:01;;;;;;;52.77;49.40;;;;;;;10.84;100.00;101179.80;1998898;71;32919;-74
2022/01/02 20:49:45;;;;;;;50.00;46.80;;;;;;;10.86;100.00;101190.09;2000713;71;33373;-68
2022/01/02 20:55:30;;;;;;;49.03;45.93;;;;;;;10.83;100.00;101201.74;2009808;71;32749;-72
2022/01/02 21:01:14;;;;;;;48.90;45.50;;;;;;;10.81;100.00;101201.20;2016483;71;32831;-68
2022/01/02 21:06:59;;;;;;;49.47;46.30;;;;;;;10.74;100.00;101209.55;2011410;71;32825;-69
2022/01/02 21:12:44;;;;;;;52.33;48.73;;;;;;;10.79;100.00;101218.70;2009778;71;33317;-72
2022/01/02 21:18:30;;;;;;;51.80;48.30;;;;;;;10.76;100.00;101220.65;2014685;71;32831;-73
2022/01/02 21:24:14;;;;;;;49.83;46.53;;;;;;;10.79;100.00;101231.75;2014793;71;32943;-73
2022/01/02 21:29:59;;;;;;;53.97;50.03;;;;;;;10.74;100.00;101209.55;2015116;71;32970;-68
2022/01/02 21:35:43;;;;;;;49.90;46.70;;;;;;;10.75;100.00;101221.75;1997010;71;33244;-72
2022/01/02 21:41:27;;;;;;;50.77;47.30;;;;;;;10.75;100.00;101222.30;1998357;71;32910;-71
2022/01/02 21:47:11;;;;;;;53.60;50.03;;;;;;;10.68;100.00;101211.48;1994733;71;32828;-72
2022/01/02 21:52:56;;;;;;;51.90;48.27;;;;;;;10.71;100.00;101213.70;2004303;71;32769;-73
2022/01/02 21:58:41;;;;;;;52.40;48.60;;;;;;;10.74;100.00;101214.52;2011030;71;32890;-72
2022/01/02 22:04:27;;;;;;;54.07;50.17;;;;;;;10.75;100.00;101226.48;2014670;71;32885;-68
2022/01/02 22:10:13;;;;;;;53.77;49.87;;;;;;;10.77;100.00;101225.66;1994726;71;32962;-68
2022/01/02 22:15:57;;;;;;;53.50;49.40;;;;;;;10.78;100.00;101230.91;2001834;71;32909;-68
2022/01/02 22:21:42;;;;;;;58.53;54.27;;;;;;;10.81;100.00;101229.00;2013536;71;32808;-73
2022/01/02 22:30:37;;;;;;;55.07;51.03;;;;;;;10.71;100.00;101236.48;2060836;69;32619;-69
2022/01/02 22:33:10;;;;;;;54.93;50.60;;;;;;;10.63;100.00;101251.76;1932546;73;26270;-74
2022/01/02 22:35:40;;;;;;;55.77;51.77;;;;;;;10.68;100.00;101253.16;2016449;70;26207;-68
2022/01/02 22:38:10;;;;;;;57.57;53.10;;;;;;;10.66;100.00;101253.14;2017667;70;26215;-68
2022/01/02 22:40:41;;;;;;;53.80;50.03;;;;;;;10.59;100.00;101257.59;2024389;70;26334;-76
2022/01/02 22:43:14;;;;;;;55.47;51.13;;;;;;;10.65;100.00;101259.27;2017473;70;26212;-72
2022/01/02 22:45:47;;;;;;;55.90;51.63;;;;;;;10.69;100.00;101265.95;2010066;70;26228;-75
2022/01/02 22:48:18;;;;;;;55.70;51.50;;;;;;;10.57;100.00;101270.91;2021791;70;26771;-75
2022/01/02 22:50:50;;;;;;;56.70;52.33;;;;;;;10.67;100.00;101279.81;2004072;70;26209;-74
2022/01/02 22:53:22;;;;;;;57.40;52.97;;;;;;;10.63;100.00;101271.20;2016558;70;26254;-75
2022/01/02 22:55:53;;;;;;;55.83;51.30;;;;;;;10.70;100.00;101275.92;2011566;70;26219;-68
2022/01/02 22:58:25;;;;;;;58.63;53.77;;;;;;;10.73;100.00;101278.17;2003455;70;26293;-75
2022/01/02 23:00:58;;;;;;;56.17;51.57;;;;;;;10.69;100.00;101275.67;2016197;70;26211;-75
2022/01/02 23:03:31;;;;;;;57.20;52.63;;;;;;;10.70;100.00;101277.31;2016658;71;26179;-69
2022/01/02 23:06:05;;;;;;;60.27;55.37;;;;;;;10.71;100.00;101281.77;1940734;73;26293;-75
2022/01/02 23:08:37;;;;;;;57.93;53.50;;;;;;;10.61;100.00;101276.19;1934254;73;26216;-68
2022/01/02 23:11:11;;;;;;;57.93;53.37;;;;;;;10.72;100.00;101279.83;2009267;70;26218;-72
2022/01/02 23:13:43;;;;;;;57.30;52.90;;;;;;;10.70;100.00;101280.09;2019212;70;26825;-68
2022/01/02 23:19:34;;;;;;;58.63;54.23;;;;;;;10.73;100.00;101267.06;1991444;71;32772;-76
2022/01/02 23:25:21;;;;;;;57.57;53.13;;;;;;;10.77;100.00;101267.34;2002946;70;32809;-68
2022/01/02 23:31:06;;;;;;;56.00;51.27;;;;;;;10.77;100.00;101264.01;2000035;71;32886;-75
2022/01/02 23:36:51;;;;;;;55.17;50.63;;;;;;;10.79;100.00;101270.10;2014745;71;32998;-74
2022/01/02 23:42:36;;;;;;;57.63;52.80;;;;;;;10.74;100.00;101278.43;2009310;71;32811;-69
2022/01/02 23:48:24;;;;;;;57.97;53.00;;;;;;;10.67;100.00;101265.38;2003973;71;32822;-69
2022/01/02 23:54:08;;;;;;;59.47;55.10;;;;;;;10.63;100.00;101272.59;2012883;71;32867;-75
2022/01/02 23:59:56;;;;;;;55.17;50.37;;;;;;;10.73;100.00;101275.39;2004042;71;32866;-75
